Terminal Aerodrome Forecast
Issued by NWS

Home | Current Version | Previous Version | Text Only | Print | Product List | Glossary Off
Versions: 1 2 3 4 5 6 7 8 9 10 11 12 13 14 15 16

000
FTUS45 KGGW 021100
TAFSDY
TAF
KSDY 021133Z 0212/0312 VRB06KT P6SM FEW120
     FM021500 34011KT P6SM FEW100
     FM030300 VRB06KT P6SM FEW230
      AMD LTD TO CLD VIS AND WIND=

USA.gov is the U.S. government's official web portal to all federal, state and local government web resources and services.